Time;durP1;ratioP1;P1;durP2;ratioP2;P2;SDS_P1;SDS_P2;PMS_P1;PMS_P2;Temp;Humidity;BMP_temperature;BMP_pressure;BME280_temperature;BME280_humidity;BME280_pressure;Samples;Min_cycle;Max_cycle;Signal;HPM_P1;HPM_P2
2023/10/15 01:13:25;1091244.00;3.64;1894.77;36306.00;0.12;63.50;;;;;16.50;1.00;;;;;;1640542;55;3627;-93
2023/10/15 05:44:01;1221922.00;4.07;2129.91;1433.00;0.00;3.10;;;;;13.80;1.00;;;;;;2283786;55;3709;-89
2023/10/15 06:55:38;1482605.00;4.94;2610.43;0.00;0.00;0.62;;;;;17.80;1.00;;;;;;2269872;61;1900;-88
2023/10/15 07:08:45;145989.00;0.49;252.89;0.00;0.00;0.62;;;;;16.40;1.00;;;;;;721733;60;2941;-88
2023/10/15 07:11:38;161345.00;0.54;279.36;0.00;0.00;0.62;;;;;16.70;1.00;;;;;;2268120;61;1597;-88
2023/10/15 07:27:36;1757564.00;5.86;3137.83;51989.00;0.17;90.63;;;;;16.60;1.00;;;;;;2270012;61;1159;-89
2023/10/15 07:30:21;212744.00;0.71;367.86;0.00;0.00;0.62;;;;;16.50;1.00;;;;;;2267713;61;1544;-89
2023/10/15 07:36:05;;;;;;;;;;;;;;;;;;;;;
2023/10/15 07:49:16;2020040.00;6.73;3665.55;93061.00;0.31;161.59;;;;;15.10;1.00;;;;;;2270100;61;1171;-89
2023/10/15 07:57:17;;;;;;;;;;;;;;;;;;;;;
2023/10/15 08:03:07;292747.00;0.98;505.45;0.00;0.00;0.62;;;;;15.30;1.00;;;;;;2271881;61;1392;-87
2023/10/15 08:05:56;90098.00;0.30;156.48;0.00;0.00;0.62;;;;;15.20;1.00;;;;;;2272156;61;1438;-89
2023/10/15 08:08:42;616081.00;2.05;1061.99;72614.00;0.24;126.28;;;;;15.70;1.00;;;;;;2272003;61;1575;-89
2023/10/15 08:11:23;484728.00;1.62;835.53;0.00;0.00;0.62;;;;;15.80;1.00;;;;;;2272231;61;1465;-89
2023/10/15 08:13:53;418685.00;1.40;721.93;0.00;0.00;0.62;;;;;16.10;1.00;;;;;;2272324;61;1597;-87
2023/10/15 08:19:14;815160.00;2.72;1407.58;0.00;0.00;0.62;;;;;16.20;1.00;;;;;;2266900;61;1382;-89
2023/10/15 08:22:13;71177.00;0.24;123.79;0.00;0.00;0.62;;;;;15.90;1.00;;;;;;2265454;61;1539;-89
2023/10/15 08:30:27;484385.00;1.61;834.94;8755.00;0.03;15.79;;;;;15.40;1.00;;;;;;2271869;61;1132;-90
2023/10/15 08:33:12;;;;;;;;;;;;;;;;;;;;;
2023/10/15 08:36:04;461485.00;1.54;795.54;26781.00;0.09;47.01;;;;;15.80;1.00;;;;;;2273532;61;1911;-88
2023/10/15 08:44:44;339749.00;1.13;586.24;0.00;0.00;0.62;;;;;15.30;1.00;;;;;;2248601;61;1236;-89
2023/10/15 08:47:25;146519.00;0.49;253.81;0.00;0.00;0.62;;;;;15.00;1.00;;;;;;2253033;61;1460;-89
2023/10/15 08:50:16;124884.00;0.42;216.51;0.00;0.00;0.62;;;;;15.40;1.00;;;;;;2253010;61;1494;-88
2023/10/15 09:08:19;125692352.00;418.97;80452120.00;4256.00;0.01;8.00;;;;;16.00;1.00;;;;;;2271053;61;1412;-88
2023/10/15 09:16:36;125523080.00;418.41;80127208.00;0.00;0.00;0.62;;;;;16.60;1.00;;;;;;1562160;40;3567;-89
2023/10/15 09:24:45;1578797.00;5.26;2792.29;0.00;0.00;0.62;;;;;17.70;1.00;;;;;;2322919;40;3411;31
2023/10/15 09:29:55;1124893.00;3.75;1955.00;77519.00;0.26;134.75;;;;;17.90;1.00;;;;;;2271351;61;1341;-89
2023/10/15 09:32:40;533785.00;1.78;920.01;78284.00;0.26;136.07;;;;;18.40;1.00;;;;;;2268833;61;1564;-91
2023/10/15 09:37:42;2195111.00;7.32;4032.95;53674.00;0.18;93.54;;;;;17.80;1.00;;;;;;2274733;61;1327;-94
2023/10/15 09:42:53;939879.00;3.13;1626.27;72793.00;0.24;126.59;;;;;17.70;1.00;;;;;;2315773;56;2029;-88
2023/10/15 09:53:16;1300384.00;4.33;2272.81;0.00;0.00;0.62;;;;;15.90;1.00;;;;;;2270384;61;1440;-89
2023/10/15 09:55:46;174514.00;0.58;302.04;0.00;0.00;0.62;;;;;16.10;1.00;;;;;;2268629;61;1911;-88
2023/10/15 09:58:26;161283.00;0.54;279.25;0.00;0.00;0.62;;;;;17.10;1.00;;;;;;2268775;61;1582;-88
2023/10/15 10:01:08;271257.00;0.90;468.51;0.00;0.00;0.62;;;;;17.10;1.00;;;;;;2268624;61;1525;-88
2023/10/15 10:14:23;1897204.00;6.32;3415.34;71450.00;0.24;124.27;;;;;17.40;1.00;;;;;;2279397;56;3625;-89
2023/10/15 10:16:56;494038.00;1.65;851.56;25906.00;0.09;45.50;;;;;16.90;1.00;;;;;;2268421;61;2011;-88
2023/10/15 10:22:03;1793356.00;5.98;3208.29;70354.00;0.23;122.37;;;;;17.40;1.00;;;;;;2269865;61;1411;-89
2023/10/15 10:29:50;2039041.00;6.80;3704.80;35493.00;0.12;62.09;;;;;16.60;1.00;;;;;;2274918;40;3475;-89
2023/10/15 10:40:31;1131096.00;3.77;1966.12;0.00;0.00;0.62;;;;;17.60;1.00;;;;;;2305627;40;3767;-89
2023/10/15 10:56:47;142532.00;0.48;246.94;0.00;0.00;0.62;;;;;17.10;1.00;;;;;;2263442;61;1985;-88
2023/10/15 12:23:54;897357.00;2.99;1551.48;0.00;0.00;0.62;;;;;16.00;1.00;;;;;;1644025;40;3475;-88
2023/10/15 12:34:17;1330317.00;4.43;2327.70;0.00;0.00;0.62;;;;;15.50;1.00;;;;;;803011;40;3872;-88
2023/10/15 12:36:52;873479.00;2.91;1509.59;78235.00;0.26;135.99;;;;;15.70;1.00;;;;;;2272062;61;1992;-88
2023/10/15 13:05:13;1182081.00;3.94;2057.86;0.00;0.00;0.62;;;;;17.00;1.00;;;;;;2266128;61;1239;-89
2023/10/15 13:21:06;140194.00;0.47;242.91;0.00;0.00;0.62;;;;;16.60;1.00;;;;;;2272317;61;1209;-89
2023/10/15 13:26:05;1929575.00;6.43;3480.71;0.00;0.00;0.62;;;;;16.70;1.00;;;;;;2298017;56;3725;-88
2023/10/15 13:59:17;1677708.00;5.59;2982.19;66026.00;0.22;114.89;;;;;16.40;1.00;;;;;;2270245;61;1537;-88
2023/10/15 14:09:23;1173862.00;3.91;2043.03;0.00;0.00;0.62;;;;;16.90;1.00;;;;;;2270715;61;1389;-88
2023/10/15 14:22:21;993912.00;3.31;1721.69;0.00;0.00;0.62;;;;;17.00;1.00;;;;;;2270385;61;1388;-89
2023/10/15 14:24:57;122149.00;0.41;211.79;0.00;0.00;0.62;;;;;16.70;1.00;;;;;;2268756;61;1633;-90
2023/10/15 14:27:28;241397.00;0.80;417.15;0.00;0.00;0.62;;;;;16.60;1.00;;;;;;2268942;61;1579;-89
2023/10/15 14:32:34;1298186.00;4.33;2268.79;0.00;0.00;0.62;;;;;16.60;1.00;;;;;;2328806;55;3562;-88
2023/10/15 14:37:59;997015.00;3.32;1727.19;0.00;0.00;0.62;;;;;16.80;1.00;;;;;;2266255;61;1965;-88
2023/10/15 14:40:39;704106.00;2.35;1214.36;135035.00;0.45;234.01;;;;;17.00;1.00;;;;;;2264859;61;1515;-89
2023/10/15 14:45:53;452250.00;1.51;779.65;13033.00;0.04;23.20;;;;;16.90;1.00;;;;;;781258;60;2842;-88
2023/10/15 14:48:45;318357.00;1.06;549.47;0.00;0.00;0.62;;;;;16.90;1.00;;;;;;2268765;61;1620;-88
2023/10/15 14:51:26;219092.00;0.73;378.78;0.00;0.00;0.62;;;;;16.70;1.00;;;;;;2268752;61;1542;-89
2023/10/15 14:54:06;185356.00;0.62;320.71;0.00;0.00;0.62;;;;;17.00;1.00;;;;;;2268827;61;1715;-87
2023/10/15 15:02:08;875555.00;2.92;1513.23;0.00;0.00;0.62;;;;;16.90;1.00;;;;;;2270604;61;1402;-87
2023/10/15 15:04:40;44926.00;0.15;78.41;0.00;0.00;0.62;;;;;16.70;1.00;;;;;;2265229;61;1441;-87
2023/10/15 15:07:34;296303.00;0.99;511.56;73536.00;0.25;127.87;;;;;16.70;1.00;;;;;;2268782;61;1015;-90
2023/10/15 15:10:06;625932.00;2.09;1079.02;67635.00;0.23;117.67;;;;;16.90;1.00;;;;;;2268449;61;1451;-88
2023/10/15 15:12:40;414410.00;1.38;714.58;0.00;0.00;0.62;;;;;16.60;1.00;;;;;;2268492;61;1374;-89
2023/10/15 15:15:13;520880.00;1.74;897.78;0.00;0.00;0.62;;;;;16.60;1.00;;;;;;2266869;61;1581;-89
2023/10/15 15:20:26;172155.00;0.57;297.98;0.00;0.00;0.62;;;;;17.00;1.00;;;;;;761232;60;1728;-89
2023/10/15 15:22:57;236164.00;0.79;408.15;0.00;0.00;0.62;;;;;16.70;1.00;;;;;;2268202;61;1340;-89
2023/10/15 15:25:31;189886.00;0.63;328.51;0.00;0.00;0.62;;;;;17.00;1.00;;;;;;2268417;61;1031;-87
2023/10/15 15:28:03;326404.00;1.09;563.31;0.00;0.00;0.62;;;;;17.10;1.00;;;;;;2267992;61;1422;-91
2023/10/15 15:30:36;127437.00;0.42;220.91;0.00;0.00;0.62;;;;;16.90;1.00;;;;;;2268338;61;1421;-86
2023/10/15 15:33:04;175260.00;0.58;303.33;0.00;0.00;0.62;;;;;16.90;1.00;;;;;;2268324;61;1568;-88
2023/10/15 15:35:32;250021.00;0.83;431.99;0.00;0.00;0.62;;;;;16.90;1.00;;;;;;2268315;61;981;-87
2023/10/15 15:38:02;146790.00;0.49;254.28;0.00;0.00;0.62;;;;;16.80;1.00;;;;;;2268318;61;1931;-89
2023/10/15 15:40:30;120213.00;0.40;208.45;0.00;0.00;0.62;;;;;17.00;1.00;;;;;;2268302;61;935;-88
2023/10/15 15:42:57;232396.00;0.77;401.67;0.00;0.00;0.62;;;;;17.20;1.00;;;;;;2268261;61;1674;-88
2023/10/15 15:45:26;137864.00;0.46;238.89;0.00;0.00;0.62;;;;;17.40;1.00;;;;;;2268204;61;1467;-87
2023/10/15 15:47:53;113652.00;0.38;197.13;0.00;0.00;0.62;;;;;17.40;1.00;;;;;;2268227;61;1607;-86
2023/10/15 15:50:20;180045.00;0.60;311.57;0.00;0.00;0.62;;;;;17.30;1.00;;;;;;2268286;61;1616;-88
2023/10/15 15:53:00;146897.00;0.49;254.46;0.00;0.00;0.62;;;;;16.90;1.00;;;;;;2268378;61;1403;-88
2023/10/15 15:55:34;235060.00;0.78;406.25;0.00;0.00;0.62;;;;;16.90;1.00;;;;;;2268367;61;1045;-90
2023/10/15 15:58:19;322975.00;1.08;557.41;0.00;0.00;0.62;;;;;16.80;1.00;;;;;;2268181;61;2002;-87
2023/10/15 16:01:02;57457.00;0.19;100.08;0.00;0.00;0.62;;;;;16.90;1.00;;;;;;2268185;61;1552;-88
2023/10/15 16:03:40;275255.00;0.92;475.38;0.00;0.00;0.62;;;;;16.90;1.00;;;;;;2268264;61;1427;-88
2023/10/15 16:06:28;230570.00;0.77;398.53;0.00;0.00;0.62;;;;;16.70;1.00;;;;;;2268393;61;1311;-87
2023/10/15 16:09:08;332819.00;1.11;574.33;85396.00;0.28;148.36;;;;;16.80;1.00;;;;;;2268253;61;1483;-86
2023/10/15 16:11:45;681310.00;2.27;1174.84;77626.00;0.26;134.94;;;;;17.00;1.00;;;;;;2268195;61;1561;-88
2023/10/15 16:14:12;547816.00;1.83;944.19;869.00;0.00;2.13;;;;;17.00;1.00;;;;;;2268109;61;1621;-88
2023/10/15 16:16:45;659544.00;2.20;1137.15;0.00;0.00;0.62;;;;;17.00;1.00;;;;;;2268064;61;1913;-87
2023/10/15 16:19:17;471574.00;1.57;812.90;0.00;0.00;0.62;;;;;16.90;1.00;;;;;;2268187;61;1056;-89
2023/10/15 16:21:49;565989.00;1.89;975.53;0.00;0.00;0.62;;;;;16.70;1.00;;;;;;2267983;61;1280;-87
2023/10/15 16:24:25;276794.00;0.92;478.03;21172.00;0.07;37.30;;;;;17.00;1.00;;;;;;2268033;61;1490;-89
2023/10/15 16:27:03;56044.00;0.19;97.64;0.00;0.00;0.62;;;;;17.00;1.00;;;;;;2268091;61;1029;-88
2023/10/15 16:29:46;205151.00;0.68;354.79;81706.00;0.27;141.98;;;;;16.60;1.00;;;;;;2268130;61;934;-90
2023/10/15 16:32:19;278051.00;0.93;480.19;0.00;0.00;0.62;;;;;16.70;1.00;;;;;;2266702;61;1465;-89
2023/10/15 16:37:16;1162580.00;3.88;2022.71;0.00;0.00;0.62;;;;;17.20;1.00;;;;;;2273387;61;1895;-89
2023/10/15 16:42:18;1182135.00;3.94;2057.95;0.00;0.00;0.62;;;;;17.80;1.00;;;;;;2270027;61;1385;-87
2023/10/15 16:47:24;1053158.00;3.51;1826.85;0.00;0.00;0.62;;;;;18.00;1.00;;;;;;2270427;61;1431;-89
2023/10/15 16:49:58;179770.00;0.60;311.09;0.00;0.00;0.62;;;;;18.00;1.00;;;;;;2268793;61;1028;-88
2023/10/15 16:52:27;311505.00;1.04;537.70;27380.00;0.09;48.05;;;;;17.90;1.00;;;;;;2268627;61;1313;-87
2023/10/15 16:55:05;145642.00;0.49;252.30;0.00;0.00;0.62;;;;;18.00;1.00;;;;;;2268803;61;1681;-88
2023/10/15 16:57:37;279395.00;0.93;482.50;0.00;0.00;0.62;;;;;18.30;1.00;;;;;;2268601;61;1994;-88
2023/10/15 17:00:10;128139.00;0.43;222.12;0.00;0.00;0.62;;;;;18.40;1.00;;;;;;2268673;61;1438;-88
2023/10/15 17:02:39;177653.00;0.59;307.45;28268.00;0.09;49.59;;;;;18.50;1.00;;;;;;2268700;61;1438;-88
2023/10/15 17:05:09;171840.00;0.57;297.44;0.00;0.00;0.62;;;;;18.60;1.00;;;;;;2268671;61;1625;-87
2023/10/15 17:07:37;405133.00;1.35;698.63;76875.00;0.26;133.64;;;;;18.70;1.00;;;;;;2268730;61;1460;-87
2023/10/15 17:12:35;1211439.00;4.04;2110.92;77469.00;0.26;134.67;;;;;18.40;1.00;;;;;;2270465;61;1432;-88
2023/10/15 17:17:42;1407546.00;4.69;2470.33;76339.00;0.25;132.71;;;;;18.20;1.00;;;;;;2269739;61;1964;-88
2023/10/15 17:35:42;1213320.00;4.04;2114.32;0.00;0.00;0.62;;;;;18.00;1.00;;;;;;2270015;61;1426;-87
2023/10/15 17:38:18;287022.00;0.96;495.61;0.00;0.00;0.62;;;;;18.10;1.00;;;;;;2266980;61;2014;-87
2023/10/15 17:43:21;1138041.00;3.79;1978.59;0.00;0.00;0.62;;;;;17.50;1.00;;;;;;2270266;61;1245;-87
2023/10/15 17:48:35;586645.00;1.96;1011.17;0.00;0.00;0.62;;;;;17.50;1.00;;;;;;2269820;61;1380;-87
2023/10/15 18:03:57;1162895.00;3.88;2023.28;49784.00;0.17;86.81;;;;;16.70;1.00;;;;;;2270140;61;1243;-87
2023/10/15 18:06:24;224029.00;0.75;387.28;0.00;0.00;0.62;;;;;17.00;1.00;;;;;;2268450;61;1623;-89
2023/10/15 18:08:54;281727.00;0.94;486.51;0.00;0.00;0.62;;;;;17.30;1.00;;;;;;2268280;61;1714;-88
2023/10/15 18:11:27;286094.00;0.95;494.01;28864.00;0.10;50.62;;;;;17.40;1.00;;;;;;2268425;61;1272;-87
2023/10/15 18:13:58;232639.00;0.78;402.09;0.00;0.00;0.62;;;;;17.40;1.00;;;;;;2268321;61;1577;-88
2023/10/15 18:16:29;405884.00;1.35;699.92;83316.00;0.28;144.76;;;;;17.60;1.00;;;;;;2268445;61;1916;-90
2023/10/15 18:44:38;78672.00;0.26;136.74;0.00;0.00;0.62;;;;;16.10;1.00;;;;;;1467335;55;3114;-88
2023/10/15 18:59:49;1029086.00;3.43;1784.06;0.00;0.00;0.62;;;;;13.50;1.00;;;;;;2270333;61;1214;-86
2023/10/15 19:02:16;104673.00;0.35;181.64;0.00;0.00;0.62;;;;;13.10;1.00;;;;;;2267869;61;1433;-84
2023/10/15 19:04:43;232676.00;0.78;402.15;0.00;0.00;0.62;;;;;13.20;1.00;;;;;;2267857;61;1580;-85
2023/10/15 19:07:10;111286.00;0.37;193.05;28865.00;0.10;50.62;;;;;13.90;1.00;;;;;;2267660;61;1086;-85
2023/10/15 19:09:37;0.00;0.00;0.62;0.00;0.00;0.62;;;;;14.60;1.00;;;;;;2267408;61;1087;-87
2023/10/15 19:12:06;20412.00;0.07;35.98;0.00;0.00;0.62;;;;;15.10;1.00;;;;;;2267879;61;1341;-87
2023/10/15 19:14:33;43892.00;0.15;76.62;0.00;0.00;0.62;;;;;15.00;1.00;;;;;;2267984;61;1074;-85
2023/10/15 19:17:01;31127.00;0.10;54.53;0.00;0.00;0.62;;;;;15.40;1.00;;;;;;2268027;61;1994;-86
2023/10/15 19:19:28;11734.00;0.04;20.95;0.00;0.00;0.62;;;;;15.50;1.00;;;;;;2267882;61;1087;-84
2023/10/15 19:21:55;69538.00;0.23;120.96;0.00;0.00;0.62;;;;;16.00;1.00;;;;;;2268152;61;1383;-86
2023/10/15 19:24:22;19558.00;0.07;34.50;0.00;0.00;0.62;;;;;15.80;1.00;;;;;;2268308;61;1072;-86
2023/10/15 19:26:49;49312.00;0.16;86.00;0.00;0.00;0.62;;;;;15.80;1.00;;;;;;2268375;61;1090;-86
2023/10/15 19:29:16;78387.00;0.26;136.25;0.00;0.00;0.62;;;;;14.70;1.00;;;;;;2267543;61;1266;-84
2023/10/15 19:31:43;166930.00;0.56;288.98;0.00;0.00;0.62;;;;;14.10;1.00;;;;;;2268030;61;1399;-85
2023/10/15 19:34:11;180863.00;0.60;312.98;0.00;0.00;0.62;;;;;14.50;1.00;;;;;;2268033;61;1125;-85
2023/10/15 19:36:38;31067.00;0.10;54.43;0.00;0.00;0.62;;;;;14.90;1.00;;;;;;2268013;61;2010;-85
2023/10/15 19:39:07;34360.00;0.11;60.13;0.00;0.00;0.62;;;;;15.20;1.00;;;;;;2268175;61;1032;-86
2023/10/15 19:41:34;85659.00;0.29;148.81;0.00;0.00;0.62;;;;;15.60;1.00;;;;;;2267793;61;1395;-86
2023/10/15 19:44:01;117468.00;0.39;203.71;0.00;0.00;0.62;;;;;15.90;1.00;;;;;;2267809;61;1102;-85
2023/10/15 19:46:29;0.00;0.00;0.62;0.00;0.00;0.62;;;;;16.00;1.00;;;;;;2267813;61;1098;-86
2023/10/15 19:48:56;21703.00;0.07;38.22;0.00;0.00;0.62;;;;;16.40;1.00;;;;;;2267933;61;1117;-85
2023/10/15 19:51:24;69863.00;0.23;121.52;0.00;0.00;0.62;;;;;16.60;1.00;;;;;;2267885;61;1300;-85
2023/10/15 19:53:51;77237.00;0.26;134.26;0.00;0.00;0.62;;;;;16.70;1.00;;;;;;2267821;61;1135;-85
2023/10/15 19:56:19;92306.00;0.31;160.29;0.00;0.00;0.62;;;;;16.50;1.00;;;;;;2267861;61;1106;-85
2023/10/15 19:58:47;15915.00;0.05;28.20;0.00;0.00;0.62;;;;;16.50;1.00;;;;;;2267735;61;2008;-87
2023/10/15 20:01:15;7144.00;0.02;13.00;0.00;0.00;0.62;;;;;16.50;1.00;;;;;;2267830;61;1369;-86
2023/10/15 20:03:41;154815.00;0.52;268.11;0.00;0.00;0.62;;;;;16.70;1.00;;;;;;2267751;61;1133;-85
2023/10/15 20:06:08;198599.00;0.66;343.51;0.00;0.00;0.62;;;;;16.40;1.00;;;;;;2267752;61;1011;-86
2023/10/15 20:08:37;280823.00;0.94;484.95;0.00;0.00;0.62;;;;;15.80;1.00;;;;;;2267834;61;1004;-87
2023/10/15 20:11:04;42762.00;0.14;74.67;0.00;0.00;0.62;;;;;15.70;1.00;;;;;;2267703;61;1559;-86
2023/10/15 20:13:33;32137.00;0.11;56.28;0.00;0.00;0.62;;;;;15.80;1.00;;;;;;2267680;61;1118;-86
2023/10/15 20:16:00;178156.00;0.59;308.31;0.00;0.00;0.62;;;;;16.10;1.00;;;;;;2267816;61;1168;-86
2023/10/15 20:18:28;127627.00;0.43;221.24;0.00;0.00;0.62;;;;;16.20;1.00;;;;;;2267732;61;1915;-86
2023/10/15 20:20:55;94424.00;0.31;163.95;0.00;0.00;0.62;;;;;16.40;1.00;;;;;;2267758;61;1279;-86
2023/10/15 20:23:21;32293.00;0.11;56.55;0.00;0.00;0.62;;;;;16.30;1.00;;;;;;2267524;61;1122;-85
2023/10/15 20:25:50;107518.00;0.36;186.55;0.00;0.00;0.62;;;;;16.00;1.00;;;;;;2267530;61;1718;-87
2023/10/15 20:28:17;68893.00;0.23;119.85;0.00;0.00;0.62;;;;;16.10;1.00;;;;;;2267603;61;1743;-86
2023/10/15 20:30:43;122109.00;0.41;211.72;0.00;0.00;0.62;;;;;16.40;1.00;;;;;;2267603;61;1764;-86
2023/10/15 20:33:10;158415.00;0.53;274.31;0.00;0.00;0.62;;;;;16.40;1.00;;;;;;2267569;61;1191;-85
2023/10/15 20:35:37;21022.00;0.07;37.04;0.00;0.00;0.62;;;;;16.60;1.00;;;;;;2267638;61;1078;-87
2023/10/15 20:38:04;0.00;0.00;0.62;0.00;0.00;0.62;;;;;16.70;1.00;;;;;;2267748;61;2006;-86
2023/10/15 20:40:33;28437.00;0.09;49.88;0.00;0.00;0.62;;;;;16.40;1.00;;;;;;2267961;61;926;-87
2023/10/15 20:43:01;0.00;0.00;0.62;0.00;0.00;0.62;;;;;16.10;1.00;;;;;;2267688;61;1359;-85
2023/10/15 20:45:29;69018.00;0.23;120.06;0.00;0.00;0.62;;;;;16.00;1.00;;;;;;2267575;61;1038;-85
2023/10/15 20:47:57;55729.00;0.19;97.09;0.00;0.00;0.62;;;;;15.70;1.00;;;;;;2267654;61;1587;-88
2023/10/15 20:50:24;0.00;0.00;0.62;0.00;0.00;0.62;;;;;15.30;1.00;;;;;;2267659;61;1769;-87
2023/10/15 20:52:51;148720.00;0.50;257.60;0.00;0.00;0.62;;;;;15.30;1.00;;;;;;2267438;61;1392;-86
2023/10/15 20:55:19;117109264.00;390.36;65057816.00;0.00;0.00;0.62;;;;;15.30;1.00;;;;;;2275754;55;3738;-86
2023/10/15 20:57:47;94925.00;0.32;164.81;0.00;0.00;0.62;;;;;15.10;1.00;;;;;;2267336;61;2004;-87
2023/10/15 21:02:45;829814.00;2.77;1433.17;28139.00;0.09;49.36;;;;;14.90;1.00;;;;;;2269486;61;1436;-88
2023/10/15 21:05:13;252282.00;0.84;435.88;0.00;0.00;0.62;;;;;15.30;1.00;;;;;;2293710;56;3722;-87
2023/10/15 21:07:42;82513.00;0.28;143.38;0.00;0.00;0.62;;;;;15.00;1.00;;;;;;2271629;61;1557;-86
2023/10/15 21:10:11;35416.00;0.12;61.96;0.00;0.00;0.62;;;;;14.10;1.00;;;;;;2271730;61;993;-85
2023/10/15 21:12:38;66653.00;0.22;115.98;0.00;0.00;0.62;;;;;14.30;1.00;;;;;;2271570;61;1299;-85
2023/10/15 21:15:06;81194.00;0.27;141.10;0.00;0.00;0.62;;;;;14.80;1.00;;;;;;2271697;61;958;-85
2023/10/15 21:17:33;31859.00;0.11;55.80;0.00;0.00;0.62;;;;;15.20;1.00;;;;;;2271596;61;2020;-87
2023/10/15 21:20:07;26472.00;0.09;46.48;0.00;0.00;0.62;;;;;15.20;1.00;;;;;;2271693;61;1033;-87
2023/10/15 21:22:34;53878.00;0.18;93.89;0.00;0.00;0.62;;;;;14.80;1.00;;;;;;2271537;61;1698;-85
2023/10/15 21:25:01;62992.00;0.21;109.65;0.00;0.00;0.62;;;;;14.90;1.00;;;;;;2271762;61;926;-86
2023/10/15 21:27:28;150068.00;0.50;259.92;27202.00;0.09;47.74;;;;;15.00;1.00;;;;;;2272133;61;1108;-88
2023/10/15 21:29:55;90971.00;0.30;157.98;0.00;0.00;0.62;;;;;15.00;1.00;;;;;;2272085;61;974;-88
2023/10/15 21:32:22;94942.00;0.32;164.84;0.00;0.00;0.62;;;;;15.00;1.00;;;;;;2272148;61;1268;-88
2023/10/15 21:34:49;261926.00;0.87;452.46;34728.00;0.12;60.77;;;;;15.00;1.00;;;;;;2272361;61;1149;-88
2023/10/15 21:37:17;33557.00;0.11;58.74;0.00;0.00;0.62;;;;;15.20;1.00;;;;;;2272210;61;1993;-88
2023/10/15 21:39:44;92819.00;0.31;161.18;0.00;0.00;0.62;;;;;15.40;1.00;;;;;;2272244;61;1186;-88
2023/10/15 21:42:11;148862.00;0.50;257.85;0.00;0.00;0.62;;;;;15.80;1.00;;;;;;2272317;61;1379;-88
2023/10/15 21:44:38;237.00;0.00;1.03;0.00;0.00;0.62;;;;;15.90;1.00;;;;;;2272360;61;1107;-87
2023/10/15 21:47:05;185822.00;0.62;321.51;0.00;0.00;0.62;;;;;15.60;1.00;;;;;;2271952;61;1603;-89
2023/10/15 21:52:00;858263.00;2.86;1482.93;0.00;0.00;0.62;;;;;14.90;1.00;;;;;;2292106;55;3674;-87
2023/10/15 22:09:24;1063127.00;3.54;1844.61;30240.00;0.10;53.00;;;;;14.60;1.00;;;;;;797939;41;3952;-89
2023/10/15 22:49:33;497860.00;1.66;858.14;0.00;0.00;0.62;;;;;15.40;1.00;;;;;;2315711;40;3537;-89
2023/10/15 23:21:58;1127805.00;3.76;1960.22;79394.00;0.26;137.99;;;;;14.30;1.00;;;;;;2285284;55;3644;-89
2023/10/15 23:24:27;50582.00;0.17;88.19;0.00;0.00;0.62;;;;;13.70;1.00;;;;;;2307265;40;3751;-86
2023/10/15 23:36:47;632258.00;2.11;1089.95;0.00;0.00;0.62;;;;;14.30;1.00;;;;;;2304630;55;3610;-89
2023/10/15 23:41:49;914063.00;3.05;1580.83;0.00;0.00;0.62;;;;;14.50;1.00;;;;;;2269505;61;1412;-88
2023/10/15 23:49:13;941886.00;3.14;1629.81;24848.00;0.08;43.66;;;;;13.90;1.00;;;;;;2269406;61;1413;-88
2023/10/15 23:54:14;791739.00;2.64;1366.72;0.00;0.00;0.62;;;;;14.30;1.00;;;;;;2269278;61;1408;-89
2023/10/15 23:59:19;679022.00;2.26;1170.88;0.00;0.00;0.62;;;;;13.80;1.00;;;;;;2269675;61;1962;-88
